Time;durP1;ratioP1;P1;durP2;ratioP2;P2;SDS_P1;SDS_P2;PMS_P1;PMS_P2;Temp;Humidity;BMP_temperature;BMP_pressure;BME280_temperature;BME280_humidity;BME280_pressure;Samples;Min_cycle;Max_cycle;Signal;HPM_P1;HPM_P2
2022/11/08 07:34:35;;;;;;;6.65;3.80;;;6.40;99.90;;;;;;10601798;23;20337;-76
2022/11/08 07:39:37;;;;;;;6.43;4.40;;;6.50;99.90;;;;;;10378278;28;20062;-74
2022/11/08 07:44:38;;;;;;;9.90;5.28;;;6.50;99.90;;;;;;10331962;28;20470;-74
2022/11/08 07:49:42;;;;;;;7.75;5.28;;;6.70;99.90;;;;;;10338277;28;20054;-76
2022/11/08 07:54:44;;;;;;;7.45;5.13;;;6.80;99.90;;;;;;10337723;28;20545;-76
2022/11/08 07:59:45;;;;;;;9.90;5.38;;;7.00;99.90;;;;;;10337379;28;20109;-77
2022/11/08 08:04:49;;;;;;;10.10;5.78;;;7.10;99.90;;;;;;10337046;28;20213;-75
2022/11/08 08:09:51;;;;;;;10.20;6.00;;;7.20;99.90;;;;;;10335487;28;20097;-76
2022/11/08 08:14:52;;;;;;;9.75;5.82;;;7.00;99.90;;;;;;10337095;28;20104;-76
2022/11/08 08:19:56;;;;;;;7.60;4.70;;;7.20;99.90;;;;;;10336696;28;20106;-76
2022/11/08 08:24:58;;;;;;;11.18;6.82;;;7.30;99.90;;;;;;10334581;28;20117;-76
2022/11/08 08:29:59;;;;;;;11.73;7.68;;;7.10;99.90;;;;;;10334749;28;20047;-76
2022/11/08 08:35:03;;;;;;;12.10;7.28;;;7.00;99.90;;;;;;10329279;28;20114;-75
2022/11/08 08:40:06;;;;;;;11.32;7.93;;;6.90;99.90;;;;;;10335106;28;20043;-74
2022/11/08 08:45:09;;;;;;;10.07;7.20;;;6.90;99.90;;;;;;10335880;28;20546;-74
2022/11/08 08:50:12;;;;;;;10.10;7.22;;;7.10;99.90;;;;;;10349442;28;20054;-74
2022/11/08 08:55:15;;;;;;;10.30;6.95;;;7.60;99.90;;;;;;10337482;28;20046;-76
2022/11/08 09:00:17;;;;;;;9.57;5.72;;;7.80;99.90;;;;;;10335535;28;20046;-77
2022/11/08 09:05:21;;;;;;;9.50;5.68;;;8.10;99.90;;;;;;10330953;28;20081;-74
2022/11/08 09:10:23;;;;;;;10.05;5.82;;;8.30;99.90;;;;;;10326560;28;20078;-77
2022/11/08 09:15:25;;;;;;;8.77;5.63;;;8.50;99.90;;;;;;10327190;28;20054;-74
2022/11/08 09:20:28;;;;;;;8.50;5.15;;;8.70;99.90;;;;;;10327982;28;20097;-74
2022/11/08 09:25:30;;;;;;;10.10;5.90;;;8.90;99.90;;;;;;10327419;28;20140;-75
2022/11/08 09:30:32;;;;;;;8.38;5.53;;;9.10;99.90;;;;;;10324764;28;20054;-75
2022/11/08 09:35:36;;;;;;;7.72;4.93;;;9.30;99.90;;;;;;10328874;28;20488;-75
2022/11/08 09:40:40;;;;;;;6.90;4.53;;;9.40;99.90;;;;;;10328253;28;20500;-75
2022/11/08 09:45:45;;;;;;;8.40;4.70;;;9.50;99.90;;;;;;10327922;28;20050;-77
2022/11/08 09:50:51;;;;;;;7.75;4.70;;;9.70;99.90;;;;;;10327634;28;20511;-74
2022/11/08 09:55:58;;;;;;;6.93;4.13;;;9.90;99.90;;;;;;10327665;28;20504;-75
2022/11/08 10:01:01;;;;;;;7.63;4.45;;;10.20;99.90;;;;;;10312434;28;20385;-75
2022/11/08 10:06:41;;;;;;;6.45;3.88;;;10.40;99.90;;;;;;10309869;28;20171;-75
2022/11/08 10:12:03;;;;;;;8.98;3.60;;;10.60;99.90;;;;;;10323753;28;20085;-77
2022/11/08 10:17:34;;;;;;;7.03;3.25;;;10.70;99.90;;;;;;10323552;28;20042;-74
2022/11/08 10:22:49;;;;;;;6.45;3.17;;;10.90;99.90;;;;;;10318336;28;20136;-75
2022/11/08 10:28:41;;;;;;;7.18;3.20;;;11.10;99.90;;;;;;10326601;28;20110;-76
2022/11/08 10:33:48;;;;;;;6.80;3.00;;;11.20;99.90;;;;;;10313979;28;20269;-75
2022/11/08 10:39:01;;;;;;;5.68;2.92;;;11.40;99.90;;;;;;10327343;28;20494;-75
2022/11/08 10:44:07;;;;;;;6.13;2.75;;;11.50;99.90;;;;;;10326766;28;20054;-75
2022/11/08 10:49:14;;;;;;;6.03;2.97;;;11.60;99.90;;;;;;10326239;28;20042;-75
2022/11/08 10:54:43;;;;;;;7.03;3.60;;;11.70;99.90;;;;;;10326183;28;20054;-75
2022/11/08 10:59:45;;;;;;;8.18;4.50;;;11.80;99.90;;;;;;10324741;28;20051;-75
2022/11/08 11:04:48;;;;;;;8.27;4.63;;;11.90;99.90;;;;;;10324214;28;20049;-75
2022/11/08 11:09:51;;;;;;;8.98;4.53;;;12.00;99.90;;;;;;10333724;28;20558;-77
2022/11/08 11:14:57;;;;;;;7.32;4.40;;;12.20;99.90;;;;;;10333614;28;20485;-73
2022/11/08 11:20:00;;;;;;;7.53;4.07;;;12.40;99.90;;;;;;10333314;28;20410;-74
2022/11/08 11:25:13;;;;;;;8.65;4.95;;;12.50;99.90;;;;;;10333949;28;20050;-75
2022/11/08 11:30:32;;;;;;;8.80;4.75;;;12.50;99.90;;;;;;10328081;28;20058;-76
2022/11/08 11:35:45;;;;;;;7.57;4.20;;;12.60;99.90;;;;;;10336740;28;20090;-75
2022/11/08 11:40:51;;;;;;;6.88;4.03;;;12.70;99.90;;;;;;10335038;28;20047;-76
2022/11/08 11:45:59;;;;;;;8.65;5.18;;;12.70;99.90;;;;;;10332073;28;20105;-75
2022/11/08 11:51:02;;;;;;;7.75;4.35;;;12.90;99.90;;;;;;10331812;28;20054;-77
2022/11/08 11:56:32;;;;;;;5.95;3.30;;;13.00;99.90;;;;;;10332157;28;20096;-74
2022/11/08 12:01:53;;;;;;;11.30;3.90;;;13.20;99.90;;;;;;10332738;28;20649;-77
2022/11/08 12:07:00;;;;;;;9.43;4.50;;;13.40;99.90;;;;;;10343566;28;20062;-77
2022/11/08 12:12:19;;;;;;;9.20;4.32;;;13.50;99.90;;;;;;10331354;28;20081;-76
2022/11/08 12:18:15;;;;;;;9.38;3.78;;;13.60;99.90;;;;;;10328373;28;20054;-74
2022/11/08 12:23:41;;;;;;;7.32;3.40;;;13.70;99.90;;;;;;10330025;28;20097;-75
2022/11/08 12:29:09;;;;;;;5.82;3.15;;;13.90;99.90;;;;;;10331653;28;20065;-76
2022/11/08 12:34:20;;;;;;;6.32;3.10;;;14.20;99.90;;;;;;10331994;28;20082;-77
2022/11/08 12:39:34;;;;;;;8.18;3.17;;;14.70;99.90;;;;;;10330850;28;20113;-74
2022/11/08 12:45:16;;;;;;;6.38;3.03;;;15.10;99.90;;;;;;10331109;28;20050;-74
2022/11/08 12:50:27;;;;;;;5.95;3.00;;;15.70;99.90;;;;;;10331211;28;20054;-75
2022/11/08 12:55:35;;;;;;;6.68;2.78;;;16.40;99.60;;;;;;10329559;28;20081;-74
2022/11/08 13:00:42;;;;;;;4.88;2.50;;;17.20;98.90;;;;;;10299113;28;20828;-74
2022/11/08 13:05:52;;;;;;;5.82;2.88;;;17.90;96.40;;;;;;10328815;28;20054;-74
2022/11/08 13:11:02;;;;;;;6.30;3.63;;;18.90;94.90;;;;;;10329633;28;20546;-75
2022/11/08 13:16:13;;;;;;;5.90;3.50;;;19.80;92.40;;;;;;10328842;28;20081;-77
2022/11/08 13:21:36;;;;;;;5.50;2.60;;;22.30;88.40;;;;;;10301433;28;20050;-77
2022/11/08 13:26:41;;;;;;;4.60;2.17;;;27.10;61.30;;;;;;10326911;28;20080;-75
2022/11/08 13:31:51;;;;;;;4.57;2.40;;;24.10;63.70;;;;;;10328788;28;20091;-74
2022/11/08 13:37:20;;;;;;;7.95;2.20;;;22.30;67.40;;;;;;10329587;28;20116;-73
2022/11/08 13:42:39;;;;;;;5.13;2.17;;;21.00;72.70;;;;;;10327763;28;20081;-74
2022/11/08 13:48:35;;;;;;;5.85;2.50;;;20.20;76.60;;;;;;10329185;28;20050;-76
2022/11/08 13:53:48;;;;;;;7.30;2.65;;;19.60;78.80;;;;;;10285924;28;20142;-76
2022/11/08 13:58:50;;;;;;;6.55;2.60;;;19.20;80.90;;;;;;10293698;28;20193;-74
2022/11/08 14:03:58;;;;;;;6.00;3.25;;;18.80;81.80;;;;;;10293807;28;20102;-74
2022/11/08 14:09:21;;;;;;;7.00;3.40;;;18.50;84.30;;;;;;10293165;28;20101;-74
2022/11/08 14:14:44;;;;;;;7.38;3.00;;;18.30;86.40;;;;;;10331330;28;20400;-74
2022/11/08 14:19:48;;;;;;;5.20;2.53;;;18.00;86.30;;;;;;10334341;28;20113;-76
2022/11/08 14:24:53;;;;;;;6.63;3.08;;;18.00;88.00;;;;;;10333746;28;20129;-77
2022/11/08 14:29:59;;;;;;;4.65;2.38;;;19.00;85.50;;;;;;10332946;28;20602;-74
2022/11/08 14:35:20;;;;;;;6.60;3.20;;;21.60;77.40;;;;;;10333335;28;20057;-77
2022/11/08 14:40:24;;;;;;;5.03;2.20;;;22.80;72.30;;;;;;10339931;28;20455;-78
2022/11/08 14:45:29;;;;;;;3.90;2.10;;;24.30;68.10;;;;;;10340401;28;20042;-76
2022/11/08 14:50:34;;;;;;;5.50;2.38;;;25.30;63.00;;;;;;10339587;28;20052;-73
2022/11/08 14:55:37;;;;;;;5.43;2.53;;;24.80;62.80;;;;;;10340458;28;20455;-73
2022/11/08 15:00:43;;;;;;;4.72;2.80;;;23.50;66.60;;;;;;10339368;28;20051;-72
2022/11/08 15:05:54;;;;;;;5.20;2.70;;;22.20;71.50;;;;;;10342199;28;20051;-75
2022/11/08 15:11:00;;;;;;;5.97;2.45;;;21.20;73.10;;;;;;10338117;28;20050;-76
2022/11/08 15:16:05;;;;;;;7.97;2.70;;;20.40;76.00;;;;;;10335498;28;20093;-72
2022/11/08 15:21:27;;;;;;;5.97;2.63;;;19.80;78.50;;;;;;10334389;28;20443;-72
2022/11/08 15:28:15;;;;;;;7.88;2.97;;;19.20;81.10;;;;;;10571216;27;20592;-75
2022/11/08 15:33:22;;;;;;;5.57;2.72;;;18.80;86.40;;;;;;10528962;28;20052;-73
2022/11/08 15:38:32;;;;;;;9.90;4.43;;;18.50;88.80;;;;;;10518331;28;20417;-74
2022/11/08 15:43:41;;;;;;;18.15;7.63;;;18.20;89.80;;;;;;10561127;28;20413;-74
2022/11/08 15:48:42;;;;;;;13.45;5.18;;;17.90;90.60;;;;;;10516661;28;20052;-74
2022/11/08 15:53:44;;;;;;;7.55;2.85;;;17.60;90.90;;;;;;10490858;28;20048;-76
2022/11/08 15:58:47;;;;;;;5.53;2.80;;;17.10;91.90;;;;;;10507326;28;20551;-76
2022/11/08 16:03:51;;;;;;;5.22;2.45;;;16.60;92.80;;;;;;10517846;28;20554;-78
2022/11/08 16:08:53;;;;;;;7.60;3.10;;;16.40;93.30;;;;;;10528858;28;20127;-77
2022/11/08 16:13:56;;;;;;;6.85;2.95;;;16.20;93.40;;;;;;10518273;28;20056;-78
2022/11/08 16:18:58;;;;;;;3.97;2.30;;;16.10;93.50;;;;;;10524590;28;20048;-77
2022/11/08 16:24:00;;;;;;;5.38;2.25;;;15.70;94.90;;;;;;10513391;28;20087;-77
2022/11/08 16:29:04;;;;;;;4.88;2.55;;;15.50;95.20;;;;;;10509571;28;20084;-79
2022/11/08 16:34:09;;;;;;;4.53;1.80;;;15.30;96.10;;;;;;10502135;28;20098;-78
2022/11/08 16:39:15;;;;;;;3.78;1.73;;;15.00;94.90;;;;;;10468324;28;20052;-75
2022/11/08 16:44:18;;;;;;;4.05;1.80;;;15.10;94.40;;;;;;10466405;28;20075;-78
2022/11/08 16:49:25;;;;;;;5.28;2.60;;;15.10;94.40;;;;;;10477282;28;20056;-78
2022/11/08 16:54:28;;;;;;;4.65;2.25;;;15.10;94.70;;;;;;10497916;28;20075;-79
2022/11/08 16:59:31;;;;;;;4.13;1.98;;;15.00;94.20;;;;;;10497102;28;20055;-78
2022/11/08 17:04:33;;;;;;;5.30;2.13;;;15.00;94.40;;;;;;10469156;28;20053;-77
2022/11/08 17:09:35;;;;;;;5.40;2.55;;;14.90;94.60;;;;;;10478139;28;20130;-77
2022/11/08 17:14:38;;;;;;;5.82;2.67;;;14.70;94.80;;;;;;10484751;28;20189;-76
2022/11/08 17:19:43;;;;;;;5.63;2.90;;;14.80;95.30;;;;;;10459849;28;20536;-76
2022/11/08 17:24:45;;;;;;;5.28;2.50;;;14.80;95.30;;;;;;10464183;28;20457;-75
2022/11/08 17:29:50;;;;;;;4.80;2.10;;;14.60;95.80;;;;;;10479731;28;20059;-77
2022/11/08 17:34:52;;;;;;;5.13;2.13;;;14.50;96.40;;;;;;10474010;28;20405;-77
2022/11/08 17:39:55;;;;;;;4.25;2.30;;;14.40;95.60;;;;;;10483109;28;20061;-76
2022/11/08 17:44:58;;;;;;;6.25;2.47;;;14.30;96.90;;;;;;10471738;28;20045;-77
2022/11/08 17:50:00;;;;;;;6.38;3.13;;;14.20;96.20;;;;;;10470802;28;20056;-76
2022/11/08 17:55:05;;;;;;;8.65;2.90;;;14.20;96.90;;;;;;10471497;28;20106;-78
2022/11/08 18:00:13;;;;;;;7.03;2.72;;;14.20;96.70;;;;;;10484146;28;20229;-78
2022/11/08 18:05:16;;;;;;;5.13;2.30;;;14.10;96.40;;;;;;10492414;28;20435;-76
2022/11/08 18:10:18;;;;;;;5.90;2.58;;;13.90;98.60;;;;;;10481062;28;20053;-77
2022/11/08 18:15:21;;;;;;;4.72;2.25;;;13.80;98.10;;;;;;10475653;28;20090;-76
2022/11/08 18:20:23;;;;;;;6.60;2.88;;;13.80;98.20;;;;;;10463750;28;20052;-77
2022/11/08 18:25:25;;;;;;;6.50;3.45;;;13.80;97.40;;;;;;10419522;28;20081;-76
2022/11/08 18:30:28;;;;;;;9.45;3.55;;;13.80;97.10;;;;;;10411330;28;20049;-79
2022/11/08 18:35:32;;;;;;;4.07;2.13;;;13.80;97.60;;;;;;10390989;28;20410;-77
2022/11/08 18:40:34;;;;;;;5.63;2.28;;;13.60;99.30;;;;;;10384213;28;20045;-75
2022/11/08 18:45:43;;;;;;;4.80;2.10;;;13.30;99.90;;;;;;10399090;28;20458;-77
2022/11/08 18:50:49;;;;;;;5.75;2.40;;;13.10;99.90;;;;;;10379447;28;20085;-75
2022/11/08 18:55:51;;;;;;;6.63;3.05;;;13.00;99.20;;;;;;10357875;28;20049;-76
2022/11/08 19:00:56;;;;;;;6.40;2.97;;;13.00;99.90;;;;;;10355853;28;20054;-78
2022/11/08 19:05:58;;;;;;;8.07;4.20;;;13.00;99.90;;;;;;10337379;28;20052;-79
2022/11/08 19:11:04;;;;;;;13.40;4.90;;;12.90;99.90;;;;;;10366541;28;20049;-77
2022/11/08 19:16:13;;;;;;;10.32;5.57;;;12.90;99.90;;;;;;10367569;28;20065;-76
2022/11/08 19:21:23;;;;;;;10.57;5.27;;;12.90;99.90;;;;;;10350473;28;20054;-77
2022/11/08 19:26:27;;;;;;;8.63;4.85;;;13.00;99.90;;;;;;10395906;28;20135;-77
2022/11/08 19:31:33;;;;;;;8.45;4.15;;;13.00;99.90;;;;;;10403611;28;20459;-80
2022/11/08 19:36:44;;;;;;;7.80;4.10;;;12.90;99.90;;;;;;10404115;28;20138;-79
2022/11/08 19:41:46;;;;;;;8.68;4.38;;;12.90;99.80;;;;;;10388618;28;20045;-79
2022/11/08 19:46:49;;;;;;;8.30;4.72;;;12.90;99.40;;;;;;10380089;28;20487;-76
2022/11/08 19:51:54;;;;;;;8.40;4.68;;;12.90;99.70;;;;;;10378618;28;20053;-77
2022/11/08 19:56:56;;;;;;;13.02;5.10;;;12.90;99.90;;;;;;10384449;28;20049;-81
2022/11/08 20:02:02;;;;;;;10.10;4.43;;;12.90;99.90;;;;;;10407595;28;20059;-78
2022/11/08 20:07:06;;;;;;;8.07;4.43;;;12.90;99.90;;;;;;10400387;28;20418;-78
2022/11/08 20:12:10;;;;;;;6.82;3.83;;;12.70;99.90;;;;;;10403523;28;20072;-76
2022/11/08 20:17:13;;;;;;;8.00;4.03;;;12.80;99.80;;;;;;10383222;28;20058;-78
2022/11/08 20:22:15;;;;;;;7.43;3.90;;;12.70;99.60;;;;;;10376177;28;20050;-75
2022/11/08 20:27:17;;;;;;;7.28;3.70;;;12.70;99.90;;;;;;10403247;28;20105;-78
2022/11/08 20:32:21;;;;;;;8.48;4.35;;;12.80;99.50;;;;;;10386653;28;20408;-79
2022/11/08 20:37:22;;;;;;;8.77;4.63;;;12.80;99.90;;;;;;10395951;28;20042;-80
2022/11/08 20:42:24;;;;;;;9.18;4.93;;;12.80;99.90;;;;;;10389799;28;20103;-79
2022/11/08 20:47:27;;;;;;;6.35;4.07;;;12.90;99.90;;;;;;10422950;28;20053;-77
2022/11/08 20:52:29;;;;;;;9.50;4.07;;;12.90;99.90;;;;;;10420830;28;20133;-78
2022/11/08 20:57:31;;;;;;;9.35;4.60;;;12.90;99.90;;;;;;10407142;28;20115;-76
2022/11/08 21:02:34;;;;;;;7.88;4.35;;;13.00;99.90;;;;;;10409357;28;20046;-75
2022/11/08 21:07:36;;;;;;;9.35;5.28;;;13.00;99.90;;;;;;10383679;28;20058;-77
2022/11/08 21:12:38;;;;;;;11.30;5.45;;;13.00;99.90;;;;;;10412288;28;20644;-78
2022/11/08 21:17:41;;;;;;;8.50;4.68;;;13.00;99.90;;;;;;10413380;28;20085;-75
2022/11/08 21:22:43;;;;;;;9.60;4.80;;;12.90;99.90;;;;;;10409527;28;20073;-75
2022/11/08 21:27:45;;;;;;;9.65;4.55;;;12.80;99.90;;;;;;10416906;28;20065;-75
2022/11/08 21:32:48;;;;;;;9.18;5.35;;;12.80;99.90;;;;;;10412293;28;20570;-76
2022/11/08 21:37:50;;;;;;;9.75;4.80;;;12.90;99.90;;;;;;10395894;28;20171;-77
2022/11/08 21:42:52;;;;;;;8.45;4.38;;;12.90;99.90;;;;;;10416034;28;20439;-76
2022/11/08 21:47:56;;;;;;;8.32;4.75;;;12.80;99.90;;;;;;10408867;28;20109;-77
2022/11/08 21:52:57;;;;;;;8.70;5.25;;;12.70;99.90;;;;;;10385855;28;20467;-77
2022/11/08 21:58:01;;;;;;;8.95;5.03;;;12.60;99.90;;;;;;10414397;28;20064;-76
2022/11/08 22:03:06;;;;;;;10.52;5.78;;;12.50;99.90;;;;;;10417888;28;20475;-78
2022/11/08 22:08:07;;;;;;;9.90;5.93;;;12.20;99.90;;;;;;10381441;28;20141;-77
2022/11/08 22:13:09;;;;;;;9.98;6.25;;;12.20;99.90;;;;;;10389441;28;20072;-78
2022/11/08 22:18:12;;;;;;;12.23;6.18;;;12.20;99.90;;;;;;10397980;28;20073;-76
2022/11/08 22:23:14;;;;;;;11.57;6.85;;;11.90;99.90;;;;;;10416639;28;20080;-76
2022/11/08 22:28:16;;;;;;;12.98;6.60;;;11.90;99.90;;;;;;10412733;28;20480;-78
2022/11/08 22:33:20;;;;;;;13.40;6.85;;;11.90;99.90;;;;;;10413473;28;20072;-78
2022/11/08 22:38:22;;;;;;;12.48;7.35;;;11.90;99.90;;;;;;10377600;28;20092;-78
2022/11/08 22:43:24;;;;;;;13.57;7.82;;;11.90;99.90;;;;;;10374798;28;20077;-79
2022/11/08 22:48:27;;;;;;;13.68;7.03;;;12.00;99.90;;;;;;10411910;28;20076;-76
2022/11/08 22:53:29;;;;;;;11.68;6.47;;;12.00;99.90;;;;;;10387898;28;20557;-79
2022/11/08 22:58:31;;;;;;;12.07;6.47;;;12.00;99.90;;;;;;10392690;28;20053;-76
2022/11/08 23:03:35;;;;;;;10.88;6.13;;;12.10;99.90;;;;;;10412757;28;20096;-77
2022/11/08 23:08:37;;;;;;;10.75;6.00;;;12.00;99.90;;;;;;10412703;28;20081;-77
2022/11/08 23:24:21;;;;;;;9.75;5.85;;;11.80;99.90;;;;;;10423043;28;20085;-75
2022/11/08 23:34:49;;;;;;;10.23;5.53;;;11.70;99.90;;;;;;10350138;28;20081;-76
2022/11/08 23:45:11;;;;;;;11.63;6.18;;;11.80;99.90;;;;;;10416923;28;20058;-77
2022/11/08 23:50:14;;;;;;;9.60;5.75;;;11.70;99.90;;;;;;10420669;28;20100;-78
2022/11/08 23:55:16;;;;;;;8.65;5.10;;;11.60;99.90;;;;;;10413959;28;20045;-78
